createdAt,value
2023-03-23T00:00:45.688Z,315.08434
2023-03-23T00:05:47.492Z,317.33333
2023-03-23T00:10:49.036Z,271.65957
2023-03-23T00:15:51.096Z,296
2023-03-23T00:20:52.576Z,271.65957
2023-03-23T00:25:54.011Z,290.06742
2023-03-23T00:30:55.498Z,315.08434
2023-03-23T00:35:57.235Z,296
2023-03-23T00:40:59.250Z,308.49704
2023-03-23T00:46:01.020Z,302.13953
2023-03-23T00:51:02.557Z,292.0226
2023-03-23T00:56:03.938Z,365.91781
2023-03-23T01:01:05.623Z,338.87179
2023-03-23T01:06:06.957Z,273.41176
2023-03-23T01:11:13.165Z,317.33333
2023-03-23T01:16:14.732Z,344
2023-03-23T01:21:16.305Z,312.86228
2023-03-23T01:26:17.872Z,315.08434
2023-03-23T01:31:19.373Z,344
2023-03-23T01:36:20.876Z,344
2023-03-23T01:41:22.332Z,302.13953
2023-03-23T01:46:23.756Z,331.42138
2023-03-23T01:51:36.576Z,298.02299
2023-03-23T01:56:41.831Z,294
2023-03-23T02:01:43.280Z,329
2023-03-23T02:06:44.772Z,333.87342
2023-03-23T02:11:46.352Z,344
2023-03-23T02:16:47.770Z,346.61438
2023-03-23T02:21:49.191Z,306.35294
2023-03-23T02:26:50.617Z,269.92593
2023-03-23T02:31:52.074Z,326.6087
2023-03-23T02:36:53.588Z,312.86228
2023-03-23T02:41:54.998Z,333.87342
2023-03-23T02:46:56.693Z,363.04762
2023-03-23T02:51:58.512Z,344
2023-03-23T02:57:00.049Z,333.87342
2023-03-23T03:02:01.523Z,315.08434
2023-03-23T03:07:03.856Z,304.23392
2023-03-23T03:12:05.469Z,288.13408
2023-03-23T03:17:06.935Z,317.33333
2023-03-23T03:22:08.858Z,321.91411
2023-03-23T03:27:10.730Z,333.87342
2023-03-23T03:32:12.186Z,319.60976
2023-03-23T03:37:13.774Z,317.33333
2023-03-23T03:42:15.190Z,294
2023-03-23T03:47:16.611Z,280.61202
2023-03-23T03:52:18.534Z,282.46154
2023-03-23T03:57:20.053Z,286.22222
2023-03-23T04:02:21.920Z,321.91411
2023-03-23T04:07:23.451Z,292.0226
2023-03-23T04:12:25.673Z,256.69036
2023-03-23T04:17:27.053Z,253.54774
2023-03-23T04:22:28.507Z,263.17098
2023-03-23T04:27:30.319Z,259.89744
2023-03-23T04:32:32.389Z,276.97297
2023-03-23T04:37:33.814Z,263.17098
2023-03-23T04:42:35.261Z,284.33149
2023-03-23T04:47:36.786Z,290.06742
2023-03-23T04:52:38.358Z,294
2023-03-23T04:57:40.935Z,324.24691
2023-03-23T05:02:42.438Z,326.6087
2023-03-23T05:07:44.078Z,312.86228
2023-03-23T05:12:45.493Z,298.02299
2023-03-23T05:17:46.942Z,336.35669
2023-03-23T05:22:48.389Z,336.35669
2023-03-23T05:27:49.847Z,349.26316
2023-03-23T05:32:51.281Z,346.61438
2023-03-23T05:37:52.720Z,354.66667
2023-03-23T05:42:54.177Z,390.37681
2023-03-23T05:47:55.586Z,414.22901
2023-03-23T05:52:57.118Z,371.77778
2023-03-23T05:57:58.585Z,390.37681
2023-03-23T06:02:59.991Z,371.77778
2023-03-23T06:08:01.487Z,360.21622
2023-03-23T06:13:02.897Z,329
2023-03-23T06:18:04.300Z,317.33333
2023-03-23T06:23:05.785Z,360.21622
2023-03-23T06:28:07.197Z,336.35669
2023-03-23T06:33:08.570Z,336.35669
2023-03-23T06:38:10.016Z,331.42138
2023-03-23T06:43:11.374Z,344
2023-03-23T06:48:12.756Z,338.87179
2023-03-23T06:53:14.210Z,344
2023-03-23T06:58:15.653Z,365.91781
2023-03-23T07:03:17.083Z,384
2023-03-23T07:08:18.578Z,410.66667
2023-03-23T07:13:20.056Z,368.82759
2023-03-23T07:18:22.939Z,380.87943
2023-03-23T07:23:24.374Z,407.15789
2023-03-23T07:28:25.812Z,393.63504
2023-03-23T07:33:27.225Z,384
2023-03-23T07:38:28.641Z,384
2023-03-23T07:43:30.112Z,393.63504
2023-03-23T07:48:31.591Z,365.91781
2023-03-23T07:53:32.980Z,371.77778
2023-03-23T07:58:34.319Z,346.61438
2023-03-23T08:03:35.708Z,336.35669
2023-03-23T08:08:37.090Z,380.87943
2023-03-23T08:13:38.731Z,363.04762
2023-03-23T08:18:40.257Z,387.16547
2023-03-23T08:23:41.670Z,374.76923
2023-03-23T08:28:43.092Z,393.63504
2023-03-23T08:33:44.622Z,377.80282
2023-03-23T08:38:46.178Z,371.77778
2023-03-23T08:43:47.815Z,407.15789
2023-03-23T08:48:49.309Z,393.63504
2023-03-23T08:53:50.725Z,396.94118
2023-03-23T08:58:52.186Z,390.37681
2023-03-23T09:03:53.581Z,387.16547
2023-03-23T09:08:54.975Z,368.82759
2023-03-23T09:13:56.392Z,349.26316
2023-03-23T09:18:57.791Z,368.82759
2023-03-23T09:23:59.267Z,351.94702
2023-03-23T09:29:00.704Z,360.21622
2023-03-23T09:34:02.139Z,351.94702
2023-03-23T09:39:03.569Z,346.61438
2023-03-23T09:44:04.949Z,346.61438
2023-03-23T09:49:06.405Z,354.66667
2023-03-23T09:54:07.820Z,338.87179
2023-03-23T09:59:09.211Z,357.42282
2023-03-23T10:04:10.671Z,338.87179
2023-03-23T10:09:12.072Z,333.87342
2023-03-23T10:14:13.716Z,360.21622
2023-03-23T10:19:15.136Z,390.37681
2023-03-23T10:24:16.612Z,387.16547
2023-03-23T10:29:17.986Z,417.84615
2023-03-23T10:34:19.548Z,429.03937
2023-03-23T10:39:20.972Z,417.84615
2023-03-23T10:44:22.362Z,390.37681
2023-03-23T10:49:23.871Z,387.16547
2023-03-23T10:54:25.275Z,377.80282
2023-03-23T10:59:26.738Z,400.2963
2023-03-23T11:04:28.195Z,368.82759
2023-03-23T11:09:29.773Z,374.76923
2023-03-23T11:14:31.198Z,374.76923
2023-03-23T11:19:32.730Z,371.77778
2023-03-23T11:24:34.107Z,360.21622
2023-03-23T11:29:35.547Z,349.26316
2023-03-23T11:34:36.953Z,338.87179
2023-03-23T11:39:38.418Z,341.41935
2023-03-23T11:44:40.024Z,346.61438
2023-03-23T11:49:41.432Z,341.41935
2023-03-23T11:54:42.989Z,336.35669
2023-03-23T11:59:44.451Z,329
2023-03-23T12:04:46.031Z,336.35669
2023-03-23T12:09:47.468Z,317.33333
2023-03-23T12:14:48.919Z,357.42282
2023-03-23T12:19:50.593Z,338.87179
2023-03-23T12:24:52.017Z,341.41935
2023-03-23T12:29:53.504Z,338.87179
2023-03-23T12:34:54.876Z,387.16547
2023-03-23T12:39:56.428Z,407.15789
2023-03-23T12:44:57.926Z,360.21622
2023-03-23T12:49:59.416Z,326.6087
2023-03-23T12:55:00.843Z,308.49704
2023-03-23T13:00:02.208Z,326.6087
2023-03-23T13:05:03.609Z,351.94702
2023-03-23T13:10:05.381Z,336.35669
2023-03-23T13:15:07.345Z,317.33333
2023-03-23T13:20:08.851Z,329
2023-03-23T13:25:10.344Z,306.35294
2023-03-23T13:30:11.778Z,310.66667
2023-03-23T13:35:13.322Z,349.26316
2023-03-23T13:40:14.751Z,331.42138
2023-03-23T13:45:16.191Z,298.02299
2023-03-23T13:50:17.629Z,302.13953
2023-03-23T13:55:19.265Z,292.0226
2023-03-23T14:00:20.694Z,290.06742
2023-03-23T14:05:22.449Z,310.66667
2023-03-23T14:10:23.872Z,296
2023-03-23T14:15:25.472Z,282.46154
2023-03-23T14:20:27.025Z,280.61202
2023-03-23T14:25:28.565Z,278.78261
2023-03-23T14:30:30.151Z,306.35294
2023-03-23T14:35:31.835Z,306.35294
2023-03-23T14:40:33.266Z,306.35294
2023-03-23T14:45:34.747Z,298.02299
2023-03-23T14:50:36.140Z,292.0226
2023-03-23T14:55:37.559Z,263.17098
2023-03-23T15:00:38.961Z,312.86228
2023-03-23T15:05:40.420Z,326.6087
2023-03-23T15:10:41.941Z,329
2023-03-23T15:15:43.542Z,310.66667
2023-03-23T15:20:45.157Z,308.49704
2023-03-23T15:25:46.579Z,324.24691
2023-03-23T15:30:47.989Z,312.86228
2023-03-23T15:35:49.508Z,333.87342
2023-03-23T15:40:50.945Z,354.66667
2023-03-23T15:45:52.398Z,346.61438
2023-03-23T15:50:53.997Z,403.70149
2023-03-23T15:55:55.427Z,407.15789
2023-03-23T16:00:56.981Z,421.51938
2023-03-23T16:05:58.420Z,421.51938
2023-03-23T16:10:59.832Z,429.03937
2023-03-23T16:16:01.477Z,414.22901
2023-03-23T16:21:02.900Z,429.03937
2023-03-23T16:26:04.278Z,421.51938
2023-03-23T16:31:05.739Z,425.25
2023-03-23T16:36:07.208Z,429.03937
2023-03-23T16:41:08.656Z,440.77419
2023-03-23T16:46:10.150Z,0
2023-03-23T16:51:11.654Z,444.81301
2023-03-23T16:56:13.213Z,470.49573
2023-03-23T17:01:14.801Z,461.64706
2023-03-23T17:06:16.191Z,0
2023-03-23T17:11:17.621Z,0
2023-03-23T17:16:19.181Z,0
2023-03-23T17:21:20.672Z,0
2023-03-23T17:26:22.114Z,0
2023-03-23T17:31:23.659Z,0
2023-03-23T17:36:25.226Z,0
2023-03-23T17:41:26.723Z,0
2023-03-23T17:46:28.310Z,0
2023-03-23T17:51:29.768Z,0
2023-03-23T17:56:31.173Z,0
2023-03-23T18:01:32.662Z,0
2023-03-23T18:06:34.134Z,0
2023-03-23T18:11:35.630Z,0
2023-03-23T18:16:37.217Z,470.49573
2023-03-23T18:21:38.738Z,0
2023-03-23T18:26:40.164Z,0
2023-03-23T18:31:41.579Z,479.65217
2023-03-23T18:36:43.026Z,494
2023-03-23T18:41:44.576Z,542.05825
2023-03-23T18:46:45.981Z,542.05825
2023-03-23T18:51:47.399Z,547.92157
2023-03-23T18:56:49.164Z,536.30769
2023-03-23T19:01:50.621Z,514.37037
2023-03-23T19:06:52.078Z,542.05825
2023-03-23T19:11:53.506Z,498.95495
2023-03-23T19:16:54.983Z,498.95495
2023-03-23T19:21:56.624Z,479.65217
2023-03-23T19:26:58.045Z,470.49573
2023-03-23T19:31:59.553Z,448.91803
2023-03-23T19:37:05.720Z,509.13761
2023-03-23T19:42:08.709Z,542.05825
2023-03-23T19:47:10.638Z,504
2023-03-23T19:52:13.616Z,542.05825
2023-03-23T19:57:16.812Z,536.30769
2023-03-23T20:02:18.373Z,560
2023-03-23T20:07:21.392Z,592.42105
2023-03-23T20:12:22.975Z,620.92308
2023-03-23T20:17:24.400Z,644
2023-03-23T20:22:25.896Z,652.04598
2023-03-23T20:27:27.295Z,613.56522
2023-03-23T20:32:28.765Z,636.13483
2023-03-23T20:37:32.032Z,628.44444
2023-03-23T20:42:33.889Z,585.66667
2023-03-23T20:47:35.331Z,652.04598
2023-03-23T20:52:37.041Z,636.13483
2023-03-23T20:57:43.540Z,652.04598
2023-03-23T21:02:44.993Z,572.57143
2023-03-23T21:07:46.496Z,553.90099
2023-03-23T21:12:48.044Z,606.36559
2023-03-23T21:17:49.539Z,620.92308
2023-03-23T21:22:51.058Z,613.56522
2023-03-23T21:27:52.683Z,644
2023-03-23T21:32:54.335Z,613.56522
2023-03-23T21:37:55.952Z,636.13483
2023-03-23T21:42:57.479Z,628.44444
2023-03-23T21:47:58.995Z,636.13483
2023-03-23T21:53:00.411Z,660.27907
2023-03-23T21:58:01.930Z,620.92308
2023-03-23T22:03:03.516Z,613.56522
2023-03-23T22:08:05.003Z,0
2023-03-23T22:13:06.775Z,0
2023-03-23T22:18:08.235Z,0
2023-03-23T22:23:09.708Z,0
2023-03-23T22:28:11.115Z,0
2023-03-23T22:33:12.569Z,0
2023-03-23T22:38:13.975Z,0
2023-03-23T22:43:15.365Z,0
2023-03-23T22:48:16.739Z,0
2023-03-23T22:53:18.263Z,0
2023-03-23T22:58:19.657Z,0
2023-03-23T23:03:21.116Z,0
2023-03-23T23:08:22.662Z,0
2023-03-23T23:13:24.065Z,0
2023-03-23T23:18:25.607Z,0
2023-03-23T23:23:27.030Z,0
2023-03-23T23:28:28.677Z,0
2023-03-23T23:33:30.158Z,0
2023-03-23T23:38:31.632Z,0
2023-03-23T23:43:33.069Z,0
2023-03-23T23:48:34.521Z,0
2023-03-23T23:53:36.011Z,0
2023-03-23T23:58:37.391Z,519.70093
